MTN324 KBIL-KDEN
Flight info
| Callsign | MTN324 |
|---|---|
| Flight time | 1h 11m |
| Altitude | 35000 |
| Route | BIL BOY TOFUU FLATI5 |
| Aircraft | B738/M-SDE2E3FGHIRWXY/LB1 |
Departure
| Time | 2026-04-22 19:41 |
|---|---|
| Airport | Billings Logan International Airport (KBIL) |
Arrival
| Time | 2026-04-22 20:53 |
|---|---|
| Airport | Denver International Airport (KDEN) |
| Time | Latitude | Longitude | Altitude | Speed | Heading |
|---|---|---|---|---|---|
| 2026-04-22 19:21 | 45.80454 | -108.53701 | 3548 ft | 0 kts | 164° |
| 2026-04-22 19:32 | 45.80465 | -108.53706 | 3541 ft | 4 kts | 164° |
| 2026-04-22 19:33 | 45.80491 | -108.53716 | 3545 ft | 4 kts | 164° |
| 2026-04-22 19:33 | 45.80503 | -108.53721 | 3543 ft | 0 kts | 164° |
| 2026-04-22 19:35 | 45.80501 | -108.53718 | 3547 ft | 2 kts | 147° |
| 2026-04-22 19:36 | 45.80504 | -108.53682 | 3547 ft | 7 kts | 64° |
| 2026-04-22 19:36 | 45.80544 | -108.53582 | 3545 ft | 15 kts | 85° |
| 2026-04-22 19:36 | 45.80504 | -108.53412 | 3541 ft | 20 kts | 111° |
| 2026-04-22 19:36 | 45.80477 | -108.53218 | 3536 ft | 20 kts | 91° |
| 2026-04-22 19:37 | 45.80468 | -108.53020 | 3532 ft | 20 kts | 107° |
| 2026-04-22 19:37 | 45.80419 | -108.52839 | 3527 ft | 19 kts | 112° |
| 2026-04-22 19:37 | 45.80371 | -108.52668 | 3522 ft | 18 kts | 111° |
| 2026-04-22 19:37 | 45.80324 | -108.52499 | 3518 ft | 18 kts | 112° |
| 2026-04-22 19:38 | 45.80277 | -108.52327 | 3514 ft | 20 kts | 111° |
| 2026-04-22 19:38 | 45.80219 | -108.52133 | 3511 ft | 22 kts | 116° |
| 2026-04-22 19:38 | 45.80155 | -108.51933 | 3508 ft | 22 kts | 111° |
| 2026-04-22 19:38 | 45.80118 | -108.51785 | 3500 ft | 12 kts | 97° |
| 2026-04-22 19:39 | 45.80118 | -108.51762 | 3507 ft | 0 kts | 83° |
| 2026-04-22 19:39 | 45.80119 | -108.51758 | 3507 ft | 2 kts | 81° |
| 2026-04-22 19:39 | 45.80140 | -108.51712 | 3501 ft | 9 kts | 37° |
| 2026-04-22 19:39 | 45.80203 | -108.51685 | 3505 ft | 9 kts | 345° |
| 2026-04-22 19:40 | 45.80227 | -108.51733 | 3502 ft | 0 kts | 292° |
| 2026-04-22 19:40 | 45.80271 | -108.51892 | 3511 ft | 48 kts | 291° |
| 2026-04-22 19:40 | 45.80477 | -108.52626 | 3525 ft | 108 kts | 291° |
| 2026-04-22 19:40 | 45.80818 | -108.53851 | 3591 ft | 153 kts | 292° |
| 2026-04-22 19:41 | 45.81217 | -108.55356 | 4172 ft | 167 kts | 292° |
| 2026-04-22 19:41 | 45.81796 | -108.56765 | 4962 ft | 166 kts | 301° |
| 2026-04-22 19:41 | 45.82425 | -108.58194 | 5512 ft | 182 kts | 300° |
| 2026-04-22 19:41 | 45.83147 | -108.59852 | 5727 ft | 209 kts | 300° |
| 2026-04-22 19:42 | 45.83966 | -108.61740 | 5944 ft | 235 kts | 300° |
| 2026-04-22 19:42 | 45.84856 | -108.63802 | 6284 ft | 256 kts | 300° |
| 2026-04-22 19:42 | 45.85824 | -108.66044 | 6824 ft | 269 kts | 300° |
| 2026-04-22 19:42 | 45.86819 | -108.68347 | 7604 ft | 274 kts | 300° |
| 2026-04-22 19:43 | 45.88882 | -108.73099 | 9125 ft | 287 kts | 300° |
| 2026-04-22 19:43 | 45.89957 | -108.75573 | 9819 ft | 295 kts | 300° |
| 2026-04-22 19:43 | 45.91065 | -108.78112 | 10372 ft | 309 kts | 300° |
| 2026-04-22 19:44 | 45.92257 | -108.80839 | 10548 ft | 335 kts | 299° |
| 2026-04-22 19:44 | 45.93109 | -108.84036 | 10697 ft | 354 kts | 274° |
| 2026-04-22 19:44 | 45.92872 | -108.87548 | 10947 ft | 365 kts | 248° |
| 2026-04-22 19:44 | 45.91533 | -108.90621 | 11505 ft | 366 kts | 222° |
| 2026-04-22 19:45 | 45.89472 | -108.92728 | 12245 ft | 364 kts | 205° |
| 2026-04-22 19:45 | 45.87077 | -108.93909 | 12957 ft | 366 kts | 189° |
| 2026-04-22 19:45 | 45.84536 | -108.94036 | 13594 ft | 368 kts | 173° |
| 2026-04-22 19:45 | 45.81998 | -108.93478 | 14281 ft | 370 kts | 169° |
| 2026-04-22 19:46 | 45.79470 | -108.92738 | 14974 ft | 371 kts | 167° |
| 2026-04-22 19:46 | 45.76940 | -108.91948 | 15687 ft | 373 kts | 167° |
| 2026-04-22 19:46 | 45.74400 | -108.91159 | 16375 ft | 374 kts | 168° |
| 2026-04-22 19:46 | 45.71842 | -108.90385 | 17040 ft | 377 kts | 168° |
| 2026-04-22 19:47 | 45.69296 | -108.89636 | 17694 ft | 379 kts | 168° |
| 2026-04-22 19:47 | 45.66702 | -108.88889 | 18269 ft | 381 kts | 168° |
| 2026-04-22 19:47 | 45.64945 | -108.88391 | 18648 ft | 383 kts | 168° |
| 2026-04-22 19:47 | 45.61462 | -108.87414 | 19380 ft | 386 kts | 168° |
| 2026-04-22 19:48 | 45.58822 | -108.86680 | 19917 ft | 388 kts | 168° |
| 2026-04-22 19:48 | 45.56161 | -108.85942 | 20457 ft | 390 kts | 168° |
| 2026-04-22 19:48 | 45.53482 | -108.85202 | 20982 ft | 392 kts | 168° |
| 2026-04-22 19:48 | 45.50798 | -108.84460 | 21512 ft | 394 kts | 169° |
| 2026-04-22 19:49 | 45.48101 | -108.83717 | 22025 ft | 396 kts | 169° |
| 2026-04-22 19:49 | 45.45395 | -108.82971 | 22535 ft | 397 kts | 168° |
| 2026-04-22 19:49 | 45.42672 | -108.82221 | 23001 ft | 399 kts | 168° |
| 2026-04-22 19:49 | 45.39938 | -108.81469 | 23420 ft | 400 kts | 168° |
| 2026-04-22 19:50 | 45.38128 | -108.80972 | 23704 ft | 401 kts | 168° |
| 2026-04-22 19:50 | 45.35381 | -108.80217 | 24115 ft | 402 kts | 168° |
| 2026-04-22 19:50 | 45.32629 | -108.79462 | 24494 ft | 404 kts | 168° |
| 2026-04-22 19:50 | 45.29858 | -108.78703 | 24844 ft | 406 kts | 168° |
| 2026-04-22 19:51 | 45.27072 | -108.77940 | 25210 ft | 408 kts | 168° |
| 2026-04-22 19:51 | 45.24276 | -108.77175 | 25584 ft | 409 kts | 168° |
| 2026-04-22 19:51 | 45.21509 | -108.76418 | 25944 ft | 411 kts | 168° |
| 2026-04-22 19:51 | 45.18695 | -108.75650 | 26315 ft | 412 kts | 168° |
| 2026-04-22 19:52 | 45.15864 | -108.74878 | 26681 ft | 414 kts | 168° |
| 2026-04-22 19:52 | 45.13025 | -108.74105 | 27022 ft | 416 kts | 168° |
| 2026-04-22 19:52 | 45.10177 | -108.73330 | 27370 ft | 417 kts | 168° |
| 2026-04-22 19:52 | 45.07321 | -108.72553 | 27708 ft | 418 kts | 168° |
| 2026-04-22 19:53 | 45.04467 | -108.71778 | 28189 ft | 416 kts | 168° |
| 2026-04-22 19:53 | 45.01639 | -108.71011 | 28734 ft | 413 kts | 168° |
| 2026-04-22 19:53 | 44.98827 | -108.70249 | 29249 ft | 410 kts | 168° |
| 2026-04-22 19:53 | 44.96026 | -108.69490 | 29706 ft | 409 kts | 168° |
| 2026-04-22 19:54 | 44.93231 | -108.68734 | 30056 ft | 408 kts | 168° |
| 2026-04-22 19:54 | 44.90439 | -108.67980 | 30392 ft | 408 kts | 168° |
| 2026-04-22 19:54 | 44.87651 | -108.67227 | 30722 ft | 408 kts | 169° |
| 2026-04-22 19:54 | 44.84867 | -108.66476 | 31057 ft | 407 kts | 169° |
| 2026-04-22 19:55 | 44.82083 | -108.65726 | 31382 ft | 406 kts | 169° |
| 2026-04-22 19:55 | 44.79305 | -108.64978 | 31688 ft | 406 kts | 169° |
| 2026-04-22 19:55 | 44.76567 | -108.64242 | 31969 ft | 406 kts | 169° |
| 2026-04-22 19:55 | 44.73793 | -108.63496 | 32271 ft | 405 kts | 169° |
| 2026-04-22 19:56 | 44.71024 | -108.62753 | 32585 ft | 405 kts | 170° |
| 2026-04-22 19:56 | 44.68261 | -108.62012 | 32879 ft | 404 kts | 170° |
| 2026-04-22 19:56 | 44.65492 | -108.61270 | 33153 ft | 404 kts | 170° |
| 2026-04-22 19:56 | 44.62722 | -108.60529 | 33432 ft | 404 kts | 170° |
| 2026-04-22 19:57 | 44.59959 | -108.59790 | 33635 ft | 405 kts | 171° |
| 2026-04-22 19:57 | 44.57181 | -108.59048 | 33795 ft | 407 kts | 171° |
| 2026-04-22 19:57 | 44.54388 | -108.58303 | 33947 ft | 409 kts | 171° |
| 2026-04-22 19:57 | 44.51625 | -108.57567 | 34128 ft | 409 kts | 171° |
| 2026-04-22 19:58 | 44.48817 | -108.56819 | 34339 ft | 410 kts | 171° |
| 2026-04-22 19:58 | 44.46011 | -108.56072 | 34470 ft | 412 kts | 171° |
| 2026-04-22 19:58 | 44.40360 | -108.54571 | 34459 ft | 412 kts | 171° |
| 2026-04-22 20:00 | 44.20948 | -108.49434 | 34474 ft | 404 kts | 171° |
| 2026-04-22 20:01 | 44.15371 | -108.47967 | 34488 ft | 411 kts | 171° |
| 2026-04-22 20:01 | 44.09743 | -108.46488 | 34480 ft | 412 kts | 171° |
| 2026-04-22 20:02 | 44.04096 | -108.45005 | 34504 ft | 413 kts | 171° |
| 2026-04-22 20:02 | 43.98435 | -108.43523 | 34556 ft | 414 kts | 171° |
| 2026-04-22 20:03 | 43.92770 | -108.42042 | 34600 ft | 414 kts | 171° |
| 2026-04-22 20:03 | 43.87106 | -108.40564 | 34647 ft | 414 kts | 171° |
| 2026-04-22 20:04 | 43.81440 | -108.39089 | 34687 ft | 414 kts | 171° |
| 2026-04-22 20:04 | 43.75803 | -108.37624 | 34698 ft | 415 kts | 171° |
| 2026-04-22 20:05 | 43.70131 | -108.36153 | 34701 ft | 415 kts | 171° |
| 2026-04-22 20:05 | 43.64429 | -108.34676 | 34701 ft | 416 kts | 172° |
| 2026-04-22 20:06 | 43.58734 | -108.33205 | 34677 ft | 417 kts | 172° |
| 2026-04-22 20:06 | 43.53023 | -108.31731 | 34643 ft | 418 kts | 172° |
| 2026-04-22 20:07 | 43.47322 | -108.30264 | 34595 ft | 419 kts | 172° |
| 2026-04-22 20:07 | 43.41662 | -108.28257 | 34577 ft | 422 kts | 167° |
| 2026-04-22 20:08 | 43.36018 | -108.26011 | 34566 ft | 422 kts | 167° |
| 2026-04-22 20:08 | 43.30374 | -108.23774 | 34609 ft | 422 kts | 167° |
| 2026-04-22 20:09 | 43.24732 | -108.21561 | 34638 ft | 422 kts | 168° |
| 2026-04-22 20:09 | 43.19091 | -108.19360 | 34666 ft | 421 kts | 168° |
| 2026-04-22 20:10 | 43.13452 | -108.17167 | 34675 ft | 421 kts | 168° |
| 2026-04-22 20:10 | 43.07822 | -108.14982 | 34671 ft | 420 kts | 168° |
| 2026-04-22 20:11 | 43.02197 | -108.12803 | 34667 ft | 420 kts | 168° |
| 2026-04-22 20:11 | 42.96563 | -108.10624 | 34652 ft | 420 kts | 169° |
| 2026-04-22 20:12 | 42.90934 | -108.08451 | 34627 ft | 421 kts | 169° |
| 2026-04-22 20:12 | 42.86243 | -108.06644 | 34617 ft | 421 kts | 169° |
| 2026-04-22 20:13 | 42.79668 | -108.04115 | 34619 ft | 422 kts | 169° |
| 2026-04-22 20:13 | 42.73999 | -108.01940 | 34630 ft | 423 kts | 169° |
| 2026-04-22 20:14 | 42.68328 | -107.99767 | 34634 ft | 424 kts | 169° |
| 2026-04-22 20:14 | 42.62638 | -107.97591 | 34649 ft | 425 kts | 169° |
| 2026-04-22 20:15 | 42.56935 | -107.95415 | 34657 ft | 426 kts | 169° |
| 2026-04-22 20:15 | 42.51248 | -107.93249 | 34657 ft | 427 kts | 170° |
| 2026-04-22 20:16 | 42.45518 | -107.91070 | 34665 ft | 427 kts | 170° |
| 2026-04-22 20:16 | 42.39792 | -107.88896 | 34668 ft | 427 kts | 170° |
| 2026-04-22 20:17 | 42.34065 | -107.86727 | 34672 ft | 427 kts | 171° |
| 2026-04-22 20:17 | 42.28377 | -107.84576 | 34667 ft | 427 kts | 171° |
| 2026-04-22 20:18 | 42.22662 | -107.82420 | 34666 ft | 427 kts | 171° |
| 2026-04-22 20:18 | 42.16936 | -107.80264 | 34666 ft | 427 kts | 171° |
| 2026-04-22 20:19 | 42.11209 | -107.78111 | 34662 ft | 426 kts | 171° |
| 2026-04-22 20:19 | 42.05494 | -107.75967 | 34659 ft | 427 kts | 172° |
| 2026-04-22 20:20 | 41.99762 | -107.73820 | 34653 ft | 427 kts | 172° |
| 2026-04-22 20:20 | 41.94047 | -107.71683 | 34651 ft | 427 kts | 172° |
| 2026-04-22 20:21 | 41.88360 | -107.69560 | 34652 ft | 427 kts | 172° |
| 2026-04-22 20:21 | 41.82636 | -107.67179 | 34652 ft | 438 kts | 161° |
| 2026-04-22 20:21 | 41.80076 | -107.64950 | 34674 ft | 455 kts | 146° |
| 2026-04-22 20:22 | 41.77838 | -107.61848 | 34706 ft | 463 kts | 140° |
| 2026-04-22 20:22 | 41.73590 | -107.55363 | 34716 ft | 465 kts | 139° |
| 2026-04-22 20:23 | 41.69320 | -107.48853 | 34744 ft | 465 kts | 140° |
| 2026-04-22 20:23 | 41.65004 | -107.42401 | 34748 ft | 465 kts | 140° |
| 2026-04-22 20:24 | 41.60663 | -107.35972 | 34739 ft | 466 kts | 141° |
| 2026-04-22 20:24 | 41.56315 | -107.29547 | 34720 ft | 466 kts | 141° |
| 2026-04-22 20:25 | 41.51963 | -107.23124 | 34693 ft | 466 kts | 141° |
| 2026-04-22 20:25 | 41.47609 | -107.16708 | 34721 ft | 466 kts | 141° |
| 2026-04-22 20:26 | 41.43286 | -107.10355 | 34756 ft | 466 kts | 141° |
| 2026-04-22 20:26 | 41.38929 | -107.03962 | 34786 ft | 466 kts | 141° |
| 2026-04-22 20:27 | 41.34565 | -106.97569 | 34796 ft | 466 kts | 141° |
| 2026-04-22 20:27 | 41.30205 | -106.91195 | 34791 ft | 466 kts | 140° |
| 2026-04-22 20:28 | 41.25843 | -106.84828 | 34769 ft | 466 kts | 140° |
| 2026-04-22 20:28 | 41.21503 | -106.78509 | 34742 ft | 466 kts | 141° |
| 2026-04-22 20:29 | 41.17117 | -106.72136 | 34713 ft | 467 kts | 141° |
| 2026-04-22 20:29 | 41.12720 | -106.65761 | 34651 ft | 469 kts | 141° |
| 2026-04-22 20:30 | 41.08303 | -106.59373 | 34628 ft | 470 kts | 140° |
| 2026-04-22 20:30 | 41.03882 | -106.52990 | 34625 ft | 470 kts | 140° |
| 2026-04-22 20:30 | 41.01648 | -106.49773 | 34111 ft | 478 kts | 140° |
| 2026-04-22 20:31 | 40.99399 | -106.46537 | 33515 ft | 477 kts | 141° |
| 2026-04-22 20:31 | 40.97179 | -106.43341 | 32744 ft | 478 kts | 141° |
| 2026-04-22 20:31 | 40.94927 | -106.40104 | 31989 ft | 478 kts | 141° |
| 2026-04-22 20:31 | 40.92673 | -106.36867 | 31241 ft | 478 kts | 141° |
| 2026-04-22 20:32 | 40.90416 | -106.33629 | 30491 ft | 479 kts | 141° |
| 2026-04-22 20:32 | 40.88161 | -106.30396 | 29962 ft | 475 kts | 141° |
| 2026-04-22 20:32 | 40.85954 | -106.27228 | 29728 ft | 463 kts | 141° |
| 2026-04-22 20:32 | 40.83952 | -106.23912 | 29374 ft | 466 kts | 128° |
| 2026-04-22 20:33 | 40.82476 | -106.20065 | 28831 ft | 470 kts | 122° |
| 2026-04-22 20:33 | 40.81149 | -106.16128 | 28293 ft | 466 kts | 121° |
| 2026-04-22 20:33 | 40.79855 | -106.12222 | 27807 ft | 461 kts | 121° |
| 2026-04-22 20:33 | 40.78554 | -106.08379 | 27290 ft | 456 kts | 122° |
| 2026-04-22 20:34 | 40.77236 | -106.04592 | 26806 ft | 451 kts | 122° |
| 2026-04-22 20:34 | 40.75925 | -106.00900 | 26317 ft | 448 kts | 122° |
| 2026-04-22 20:34 | 40.74604 | -105.97205 | 25827 ft | 443 kts | 122° |
| 2026-04-22 20:34 | 40.73296 | -105.93548 | 25361 ft | 439 kts | 122° |
| 2026-04-22 20:35 | 40.71996 | -105.89916 | 24875 ft | 435 kts | 122° |
| 2026-04-22 20:35 | 40.70705 | -105.86317 | 24402 ft | 432 kts | 122° |
| 2026-04-22 20:35 | 40.69428 | -105.82760 | 23977 ft | 428 kts | 122° |
| 2026-04-22 20:35 | 40.68153 | -105.79217 | 23442 ft | 427 kts | 122° |
| 2026-04-22 20:36 | 40.66885 | -105.75694 | 22905 ft | 425 kts | 122° |
| 2026-04-22 20:36 | 40.65622 | -105.72186 | 22399 ft | 421 kts | 122° |
| 2026-04-22 20:36 | 40.64791 | -105.69880 | 22060 ft | 419 kts | 122° |
| 2026-04-22 20:36 | 40.63545 | -105.66428 | 21554 ft | 415 kts | 123° |
| 2026-04-22 20:37 | 40.62316 | -105.63026 | 21104 ft | 409 kts | 123° |
| 2026-04-22 20:37 | 40.61099 | -105.59660 | 20625 ft | 404 kts | 123° |
| 2026-04-22 20:37 | 40.59893 | -105.56334 | 20187 ft | 399 kts | 123° |
| 2026-04-22 20:37 | 40.58699 | -105.53045 | 19755 ft | 397 kts | 123° |
| 2026-04-22 20:38 | 40.57509 | -105.49772 | 19294 ft | 396 kts | 123° |
| 2026-04-22 20:38 | 40.56322 | -105.46509 | 18868 ft | 394 kts | 123° |
| 2026-04-22 20:38 | 40.55170 | -105.43337 | 18713 ft | 384 kts | 123° |
| 2026-04-22 20:38 | 40.54012 | -105.40155 | 18428 ft | 379 kts | 123° |
| 2026-04-22 20:39 | 40.52889 | -105.37078 | 18110 ft | 376 kts | 123° |
| 2026-04-22 20:39 | 40.51758 | -105.33987 | 17846 ft | 372 kts | 123° |
| 2026-04-22 20:39 | 40.50642 | -105.30936 | 17597 ft | 370 kts | 123° |
| 2026-04-22 20:39 | 40.49528 | -105.27894 | 17254 ft | 367 kts | 122° |
| 2026-04-22 20:40 | 40.48428 | -105.24889 | 16948 ft | 364 kts | 122° |
| 2026-04-22 20:40 | 40.47345 | -105.21931 | 16668 ft | 355 kts | 122° |
| 2026-04-22 20:40 | 40.46280 | -105.19028 | 16360 ft | 351 kts | 122° |
| 2026-04-22 20:40 | 40.45330 | -105.16081 | 16051 ft | 352 kts | 114° |
| 2026-04-22 20:41 | 40.44620 | -105.13014 | 15735 ft | 350 kts | 111° |
| 2026-04-22 20:41 | 40.43953 | -105.09958 | 15421 ft | 346 kts | 111° |
| 2026-04-22 20:41 | 40.43272 | -105.06953 | 15120 ft | 342 kts | 111° |
| 2026-04-22 20:41 | 40.42577 | -105.03982 | 14881 ft | 337 kts | 111° |
| 2026-04-22 20:42 | 40.41884 | -105.01077 | 14696 ft | 330 kts | 111° |
| 2026-04-22 20:42 | 40.41209 | -104.98260 | 14506 ft | 317 kts | 111° |
| 2026-04-22 20:42 | 40.40561 | -104.95554 | 14328 ft | 304 kts | 111° |
| 2026-04-22 20:42 | 40.39936 | -104.92955 | 14173 ft | 293 kts | 111° |
| 2026-04-22 20:43 | 40.39336 | -104.90458 | 14006 ft | 282 kts | 111° |
| 2026-04-22 20:43 | 40.38756 | -104.88039 | 13842 ft | 275 kts | 111° |
| 2026-04-22 20:43 | 40.38190 | -104.85669 | 13679 ft | 269 kts | 111° |
| 2026-04-22 20:43 | 40.37640 | -104.83363 | 13512 ft | 268 kts | 111° |
| 2026-04-22 20:44 | 40.37081 | -104.81022 | 13335 ft | 269 kts | 111° |
| 2026-04-22 20:44 | 40.36511 | -104.78643 | 13141 ft | 270 kts | 111° |
| 2026-04-22 20:44 | 40.35955 | -104.76324 | 12962 ft | 270 kts | 113° |
| 2026-04-22 20:44 | 40.35018 | -104.74250 | 12691 ft | 265 kts | 140° |
| 2026-04-22 20:45 | 40.33591 | -104.72737 | 12372 ft | 264 kts | 147° |
| 2026-04-22 20:45 | 40.32104 | -104.71312 | 12022 ft | 266 kts | 147° |
| 2026-04-22 20:45 | 40.30609 | -104.69872 | 11694 ft | 267 kts | 147° |
| 2026-04-22 20:45 | 40.29050 | -104.68585 | 11356 ft | 262 kts | 163° |
| 2026-04-22 20:46 | 40.25580 | -104.68203 | 10677 ft | 246 kts | 184° |
| 2026-04-22 20:46 | 40.23891 | -104.68253 | 10362 ft | 240 kts | 184° |
| 2026-04-22 20:46 | 40.22233 | -104.68286 | 10044 ft | 236 kts | 184° |
| 2026-04-22 20:47 | 40.20599 | -104.68311 | 9822 ft | 233 kts | 183° |
| 2026-04-22 20:47 | 40.18980 | -104.68334 | 9815 ft | 235 kts | 183° |
| 2026-04-22 20:47 | 40.17335 | -104.68356 | 9806 ft | 238 kts | 184° |
| 2026-04-22 20:47 | 40.15670 | -104.68379 | 9741 ft | 242 kts | 184° |
| 2026-04-22 20:48 | 40.13971 | -104.68400 | 9515 ft | 245 kts | 183° |
| 2026-04-22 20:48 | 40.12283 | -104.68419 | 9242 ft | 244 kts | 183° |
| 2026-04-22 20:48 | 40.10629 | -104.68434 | 9166 ft | 234 kts | 184° |
| 2026-04-22 20:48 | 40.08986 | -104.68453 | 8888 ft | 236 kts | 184° |
| 2026-04-22 20:49 | 40.07343 | -104.68474 | 8602 ft | 236 kts | 184° |
| 2026-04-22 20:49 | 40.05722 | -104.68493 | 8291 ft | 227 kts | 184° |
| 2026-04-22 20:49 | 40.04188 | -104.68509 | 8037 ft | 215 kts | 184° |
| 2026-04-22 20:49 | 40.02730 | -104.68527 | 7779 ft | 204 kts | 184° |
| 2026-04-22 20:50 | 40.01340 | -104.68544 | 7543 ft | 197 kts | 184° |
| 2026-04-22 20:50 | 39.99997 | -104.68555 | 7318 ft | 189 kts | 185° |
| 2026-04-22 20:50 | 39.98710 | -104.68576 | 7091 ft | 180 kts | 184° |
| 2026-04-22 20:50 | 39.97497 | -104.68587 | 6873 ft | 168 kts | 186° |
| 2026-04-22 20:51 | 39.96374 | -104.68601 | 6727 ft | 160 kts | 185° |
| 2026-04-22 20:51 | 39.95252 | -104.68616 | 6525 ft | 164 kts | 185° |
| 2026-04-22 20:51 | 39.94108 | -104.68630 | 6315 ft | 167 kts | 185° |
| 2026-04-22 20:51 | 39.92967 | -104.68643 | 6088 ft | 161 kts | 183° |
| 2026-04-22 20:52 | 39.91851 | -104.68656 | 5881 ft | 163 kts | 182° |
| 2026-04-22 20:52 | 39.90723 | -104.68670 | 5622 ft | 159 kts | 179° |
| 2026-04-22 20:52 | 39.89651 | -104.68682 | 5396 ft | 150 kts | 179° |
| 2026-04-22 20:52 | 39.88674 | -104.68691 | 5364 ft | 123 kts | 180° |
| 2026-04-22 20:53 | 39.88010 | -104.68698 | 5365 ft | 42 kts | 180° |
| 2026-04-22 20:53 | 39.87774 | -104.68656 | 5365 ft | 28 kts | 161° |
| 2026-04-22 20:53 | 39.87624 | -104.68557 | 5362 ft | 23 kts | 150° |
| 2026-04-22 20:53 | 39.87478 | -104.68492 | 5364 ft | 22 kts | 178° |
| 2026-04-22 20:54 | 39.87327 | -104.68494 | 5363 ft | 22 kts | 181° |
| 2026-04-22 20:54 | 39.87178 | -104.68496 | 5363 ft | 21 kts | 180° |
| 2026-04-22 20:54 | 39.87034 | -104.68497 | 5364 ft | 21 kts | 180° |
| 2026-04-22 20:54 | 39.86883 | -104.68499 | 5364 ft | 22 kts | 180° |
| 2026-04-22 20:55 | 39.86723 | -104.68500 | 5364 ft | 23 kts | 180° |
| 2026-04-22 20:55 | 39.86557 | -104.68501 | 5364 ft | 24 kts | 180° |
| 2026-04-22 20:55 | 39.86385 | -104.68503 | 5363 ft | 25 kts | 180° |
| 2026-04-22 20:55 | 39.86210 | -104.68506 | 5363 ft | 26 kts | 180° |
| 2026-04-22 20:56 | 39.86031 | -104.68508 | 5363 ft | 26 kts | 180° |
| 2026-04-22 20:56 | 39.85856 | -104.68510 | 5365 ft | 23 kts | 180° |
| 2026-04-22 20:56 | 39.85737 | -104.68510 | 5363 ft | 12 kts | 175° |
| 2026-04-22 20:56 | 39.85689 | -104.68435 | 5362 ft | 12 kts | 95° |
| 2026-04-22 20:57 | 39.85687 | -104.68329 | 5365 ft | 12 kts | 90° |
| 2026-04-22 20:57 | 39.85686 | -104.68213 | 5365 ft | 14 kts | 97° |
| 2026-04-22 20:57 | 39.85669 | -104.68082 | 5365 ft | 16 kts | 90° |
| 2026-04-22 20:57 | 39.85669 | -104.67917 | 5365 ft | 21 kts | 90° |
| 2026-04-22 20:58 | 39.85667 | -104.67714 | 5365 ft | 24 kts | 90° |
| 2026-04-22 20:58 | 39.85665 | -104.67487 | 5365 ft | 25 kts | 91° |
| 2026-04-22 20:58 | 39.85663 | -104.67265 | 5365 ft | 24 kts | 90° |
| 2026-04-22 20:58 | 39.85661 | -104.67057 | 5365 ft | 23 kts | 91° |
| 2026-04-22 20:59 | 39.85667 | -104.66904 | 5364 ft | 13 kts | 60° |
| 2026-04-22 20:59 | 39.85748 | -104.66876 | 5363 ft | 11 kts | 0° |
| 2026-04-22 20:59 | 39.85802 | -104.66875 | 5364 ft | 4 kts | 0° |
| 2026-04-22 20:59 | 39.85806 | -104.66875 | 5363 ft | 0 kts | 0° |